Reply To: October 3rd

Welcome to Sky Soaring Forums General Discussion October 3rd Reply To: October 3rd

#4652
Mark MallamoMark Mallamo
Participant

<pre class=”sv svwxdata”>Tomorrow looks to be a bit breezy…

TAF KRFD 022320Z 0300/0324 VRB03KT P6SM BKN015
FM030600 15008KT P6SM SCT008 BKN012
FM031400 20014G20KT P6SM SCT035 BKN250
FM031700 20020G32KT P6SM SCT050 SCT250